Time;durP1;ratioP1;P1;durP2;ratioP2;P2;SDS_P1;SDS_P2;PMS_P1;PMS_P2;Temp;Humidity;BMP_temperature;BMP_pressure;BME280_temperature;BME280_humidity;BME280_pressure;Samples;Min_cycle;Max_cycle;Signal;HPM_P1;HPM_P2
2021/09/01 00:06:43;;;;;;;8.73;4.13;;;25.70;59.20;;;;;;20965702;27;79947;-72
2021/09/01 00:16:46;;;;;;;11.52;4.57;;;25.40;60.30;;;;;;20976365;27;80643;-75
2021/09/01 00:26:48;;;;;;;10.35;3.67;;;25.20;62.30;;;;;;20955962;27;81571;-73
2021/09/01 00:36:49;;;;;;;10.90;4.68;;;25.00;63.40;;;;;;20956508;27;80409;-73
2021/09/01 00:46:53;;;;;;;10.43;4.07;;;24.90;64.90;;;;;;20956064;27;80796;-74
2021/09/01 00:57:00;;;;;;;10.40;4.35;;;22.90;75.10;;;;;;20974807;27;80869;-72
2021/09/01 01:07:07;;;;;;;9.43;2.90;;;22.00;76.80;;;;;;20974161;27;81786;-71
2021/09/01 01:17:10;;;;;;;7.85;3.83;;;21.70;77.30;;;;;;20954130;27;82578;-70
2021/09/01 01:27:33;;;;;;;9.10;4.32;;;21.90;78.70;;;;;;20954274;27;81859;-69
2021/09/01 01:37:40;;;;;;;9.00;3.80;;;22.20;78.50;;;;;;20954358;27;81845;-67
2021/09/01 01:47:43;;;;;;;6.35;2.50;;;22.10;78.30;;;;;;20953643;27;80754;-68
2021/09/01 01:57:52;;;;;;;6.93;2.55;;;22.00;76.20;;;;;;20970983;27;80810;-68
2021/09/01 02:08:01;;;;;;;7.78;2.70;;;22.20;75.00;;;;;;20952577;27;81396;-67
2021/09/01 02:18:13;;;;;;;6.13;2.10;;;22.00;72.70;;;;;;20969735;27;80814;-68
2021/09/01 02:28:20;;;;;;;5.95;2.53;;;21.90;71.00;;;;;;20950826;27;80870;-69
2021/09/01 02:38:27;;;;;;;7.15;2.90;;;22.10;71.70;;;;;;20950213;27;80561;-70
2021/09/01 02:48:32;;;;;;;3.72;1.90;;;22.30;72.50;;;;;;20966725;27;80846;-69
2021/09/01 02:58:36;;;;;;;5.45;1.77;;;22.10;73.40;;;;;;20967402;27;81898;-68
2021/09/01 03:08:41;;;;;;;6.90;1.77;;;21.90;73.80;;;;;;20948387;27;80960;-69
2021/09/01 03:19:01;;;;;;;7.35;1.60;;;21.50;74.40;;;;;;20965393;27;80973;-70
2021/09/01 03:29:13;;;;;;;5.97;2.00;;;21.40;74.20;;;;;;20965114;27;81822;-69
2021/09/01 03:39:21;;;;;;;12.02;2.08;;;21.10;74.60;;;;;;20965625;27;81637;-70
2021/09/01 03:49:37;;;;;;;12.10;2.45;;;19.90;78.80;;;;;;20978437;27;80596;-67
2021/09/01 03:59:49;;;;;;;9.98;2.50;;;19.40;80.60;;;;;;20979183;27;80119;-71
2021/09/01 04:09:57;;;;;;;7.32;1.77;;;19.40;81.20;;;;;;20979478;27;80677;-71
2021/09/01 04:20:07;;;;;;;4.72;1.75;;;19.40;80.90;;;;;;20978974;27;81069;-70
2021/09/01 04:30:16;;;;;;;8.02;2.80;;;19.40;80.50;;;;;;20960459;27;80767;-69
2021/09/01 04:40:23;;;;;;;5.10;2.00;;;19.40;81.00;;;;;;20978060;27;81118;-73
2021/09/01 04:50:31;;;;;;;6.40;1.95;;;19.60;80.30;;;;;;20977127;27;80736;-75
2021/09/01 05:00:34;;;;;;;7.95;1.73;;;19.70;79.40;;;;;;20975712;27;80008;-73
2021/09/01 05:10:36;;;;;;;5.95;1.58;;;19.70;78.80;;;;;;20974884;27;81022;-67
2021/09/01 05:20:39;;;;;;;6.80;1.83;;;19.70;77.80;;;;;;20974083;27;80743;-74
2021/09/01 05:30:41;;;;;;;;;;;19.60;77.80;;;;;;20974916;27;80951;-75
2021/09/01 05:40:46;;;;;;;2.90;1.05;;;19.60;78.50;;;;;;20995268;27;80875;-71
2021/09/01 05:50:52;;;;;;;2.95;1.20;;;19.60;78.10;;;;;;20969540;27;80356;-71
2021/09/01 06:00:57;;;;;;;4.05;1.00;;;19.50;78.20;;;;;;20953715;27;80895;-71
2021/09/01 06:11:01;;;;;;;5.28;2.20;;;19.70;78.10;;;;;;20971075;27;79930;-72
2021/09/01 06:21:03;;;;;;;4.25;1.30;;;19.60;78.00;;;;;;20971707;27;80778;-69
2021/09/01 06:31:06;;;;;;;;;;;19.80;77.70;;;;;;20970984;27;80738;-70
2021/09/01 06:41:10;;;;;;;5.32;1.70;;;19.90;78.20;;;;;;20986603;27;79464;-65
2021/09/01 06:51:12;;;;;;;;;;;19.90;77.10;;;;;;20963101;27;80199;-66
2021/09/01 07:01:16;;;;;;;;;;;20.00;77.60;;;;;;20988732;27;79643;-72
2021/09/01 07:11:18;;;;;;;4.73;1.43;;;20.10;76.90;;;;;;20990167;27;74487;-65
2021/09/01 07:21:20;;;;;;;7.22;1.83;;;20.50;75.10;;;;;;20967443;27;79903;-71
2021/09/01 07:31:24;;;;;;;5.88;1.35;;;20.50;74.60;;;;;;20968682;27;81932;-69
2021/09/01 07:41:28;;;;;;;7.43;1.20;;;20.40;74.30;;;;;;20948428;27;80790;-70
2021/09/01 07:51:29;;;;;;;3.53;0.93;;;20.10;74.70;;;;;;20948905;27;80725;-68
2021/09/01 08:01:34;;;;;;;7.10;1.00;;;20.20;74.40;;;;;;20964997;27;80893;-67
2021/09/01 08:11:37;;;;;;;6.70;1.40;;;20.30;74.60;;;;;;20964763;27;81940;-68
2021/09/01 08:21:39;;;;;;;5.38;1.20;;;20.80;73.20;;;;;;20947184;27;81776;-68
2021/09/01 08:31:44;;;;;;;4.68;1.02;;;21.40;71.60;;;;;;20956560;27;81867;-68
2021/09/01 08:41:47;;;;;;;5.60;1.15;;;21.90;69.10;;;;;;20979002;27;80773;-69
2021/09/01 08:51:50;;;;;;;5.25;1.67;;;22.20;67.00;;;;;;20977715;27;80022;-69
2021/09/01 09:01:55;;;;;;;3.65;1.10;;;22.80;65.70;;;;;;20919271;27;81271;-66
2021/09/01 09:12:01;;;;;;;3.03;1.20;;;23.10;63.90;;;;;;20893319;28;80953;-66
2021/09/01 09:22:04;;;;;;;5.05;1.17;;;23.40;62.60;;;;;;20893045;28;80551;-69
2021/09/01 09:32:09;;;;;;;3.45;1.05;;;24.80;58.20;;;;;;20874212;28;80688;-67
2021/09/01 09:42:29;;;;;;;3.03;1.00;;;26.00;54.70;;;;;;20872818;27;80180;-67
2021/09/01 09:52:35;;;;;;;4.00;1.17;;;26.90;52.30;;;;;;20872375;28;80897;-67
2021/09/01 10:02:41;;;;;;;3.17;1.40;;;26.50;52.50;;;;;;20872354;27;81762;-67
2021/09/01 10:12:47;;;;;;;6.50;1.17;;;26.90;50.50;;;;;;20864227;27;81733;-68
2021/09/01 10:23:05;;;;;;;4.10;1.65;;;27.50;49.60;;;;;;20883058;27;81640;-71
2021/09/01 10:33:45;;;;;;;2.75;1.13;;;28.30;46.80;;;;;;20884054;28;80756;-69
2021/09/01 10:43:48;;;;;;;3.55;1.10;;;28.00;47.90;;;;;;20798863;28;80733;-70
2021/09/01 10:54:31;;;;;;;6.00;1.60;;;28.60;46.20;;;;;;20769562;28;80823;-70
2021/09/01 11:04:34;;;;;;;5.22;1.80;;;31.70;40.70;;;;;;20863552;28;79949;-69
2021/09/01 11:14:40;;;;;;;7.70;2.03;;;35.50;33.40;;;;;;20866964;28;80772;-70
2021/09/01 11:25:15;;;;;;;8.57;2.20;;;34.10;35.60;;;;;;20881819;28;81504;-69
2021/09/01 11:35:24;;;;;;;4.40;2.03;;;31.30;40.10;;;;;;20850175;28;81278;-69
2021/09/01 11:45:29;;;;;;;9.97;2.27;;;32.60;38.20;;;;;;20883639;28;80771;-71
2021/09/01 11:55:33;;;;;;;5.30;2.55;;;34.30;35.60;;;;;;20936773;27;82497;-68
2021/09/01 12:05:36;;;;;;;4.05;2.30;;;34.20;36.10;;;;;;20903633;27;80550;-69
2021/09/01 12:15:38;;;;;;;14.27;4.68;;;40.60;27.60;;;;;;20894561;27;80482;-69
2021/09/01 12:25:39;;;;;;;6.90;2.83;;;37.00;32.60;;;;;;20892525;27;80867;-69
2021/09/01 12:35:45;;;;;;;5.00;2.30;;;37.80;31.10;;;;;;20893562;27;80810;-72
2021/09/01 12:45:59;;;;;;;8.93;2.78;;;34.90;35.60;;;;;;20892220;28;80816;-70
2021/09/01 12:56:02;;;;;;;4.28;2.58;;;31.50;40.00;;;;;;20893417;28;81078;-69
2021/09/01 13:06:04;;;;;;;8.77;2.83;;;30.50;42.60;;;;;;20888318;27;81754;-71
2021/09/01 13:16:06;;;;;;;6.75;3.00;;;29.90;43.80;;;;;;20886707;27;80293;-70
2021/09/01 13:26:08;;;;;;;4.85;2.33;;;29.50;44.20;;;;;;20874316;28;80734;-70
2021/09/01 13:36:11;;;;;;;4.60;2.33;;;28.80;45.80;;;;;;20873729;28;80970;-70
2021/09/01 13:46:15;;;;;;;4.20;2.35;;;27.90;47.20;;;;;;20874436;28;80885;-64
2021/09/01 13:56:17;;;;;;;6.53;3.50;;;27.20;48.70;;;;;;20873543;28;82023;-61
2021/09/01 14:06:22;;;;;;;7.32;3.00;;;26.60;49.90;;;;;;20884065;28;81759;-62
2021/09/01 14:16:25;;;;;;;10.57;3.00;;;26.40;50.70;;;;;;20864429;28;80715;-61
2021/09/01 14:26:26;;;;;;;8.13;3.05;;;26.20;51.70;;;;;;20881822;27;80228;-65
2021/09/01 14:36:29;;;;;;;9.45;3.20;;;25.90;52.60;;;;;;20883564;28;80746;-62
2021/09/01 14:46:31;;;;;;;9.95;4.07;;;25.60;55.40;;;;;;20886695;28;80753;-63
2021/09/01 14:56:33;;;;;;;7.88;3.60;;;25.30;57.20;;;;;;20869520;28;80902;-66
2021/09/01 15:06:35;;;;;;;6.53;3.72;;;25.10;57.10;;;;;;21009856;27;81569;-71
2021/09/01 15:16:38;;;;;;;9.43;4.50;;;24.90;58.80;;;;;;21047724;27;80264;-74
2021/09/01 15:26:39;;;;;;;7.97;4.10;;;24.60;62.00;;;;;;21031681;27;81887;-75
2021/09/01 15:36:45;;;;;;;10.80;4.85;;;24.00;64.50;;;;;;21034691;27;81057;-75
2021/09/01 15:46:54;;;;;;;10.77;3.75;;;23.50;68.10;;;;;;21036273;27;83220;-74
2021/09/01 15:56:57;;;;;;;7.60;2.73;;;23.30;69.80;;;;;;21034247;27;81108;-76
2021/09/01 16:07:00;;;;;;;5.40;2.88;;;23.10;69.20;;;;;;21051285;27;80734;-75
2021/09/01 16:17:26;;;;;;;3.95;2.53;;;23.10;69.10;;;;;;21032685;27;81876;-75
2021/09/01 16:27:30;;;;;;;5.55;2.20;;;22.90;68.60;;;;;;21050703;27;82179;-74
2021/09/01 16:37:46;;;;;;;4.20;1.95;;;22.80;68.40;;;;;;21049325;27;80740;-75
2021/09/01 16:47:47;;;;;;;5.07;2.08;;;22.90;67.00;;;;;;21051895;27;80622;-76
2021/09/01 16:58:15;;;;;;;5.45;1.70;;;22.90;68.00;;;;;;21063671;27;81032;-70
2021/09/01 17:08:21;;;;;;;6.53;2.97;;;23.00;67.20;;;;;;21061726;27;82027;-70
2021/09/01 17:18:24;;;;;;;5.90;2.22;;;22.80;67.80;;;;;;21062544;27;80776;-71
2021/09/01 17:28:35;;;;;;;8.05;1.98;;;22.70;68.80;;;;;;21062272;27;81902;-69
2021/09/01 17:38:37;;;;;;;3.30;1.02;;;22.70;69.20;;;;;;21042603;27;80571;-69
2021/09/01 17:48:40;;;;;;;3.15;1.00;;;22.70;64.30;;;;;;21060773;27;81099;-70
2021/09/01 17:58:41;;;;;;;3.10;0.95;;;22.50;61.90;;;;;;21058736;27;81850;-71
2021/09/01 18:08:43;;;;;;;5.53;1.15;;;22.40;61.40;;;;;;21060013;27;81059;-70
2021/09/01 18:18:45;;;;;;;3.90;1.33;;;22.40;60.60;;;;;;21059601;27;82127;-65
2021/09/01 18:28:47;;;;;;;;;;;22.40;60.90;;;;;;21040550;27;80785;-67
2021/09/01 18:38:48;;;;;;;6.38;1.02;;;22.40;60.40;;;;;;21079758;27;81766;-69
2021/09/01 18:48:50;;;;;;;4.40;1.85;;;22.40;60.20;;;;;;21055786;27;80095;-67
2021/09/01 18:58:51;;;;;;;4.17;1.50;;;22.30;60.40;;;;;;21032459;27;80263;-69
2021/09/01 19:09:00;;;;;;;5.60;2.07;;;22.10;60.00;;;;;;21029647;27;80030;-66
2021/09/01 19:19:04;;;;;;;4.13;1.73;;;21.90;60.30;;;;;;21054635;27;81164;-68
2021/09/01 19:29:06;;;;;;;3.85;1.30;;;21.80;60.10;;;;;;21054640;27;81028;-69
2021/09/01 19:39:07;;;;;;;7.95;1.80;;;21.70;60.60;;;;;;21033103;27;80405;-67
2021/09/01 19:49:08;;;;;;;9.67;1.80;;;21.50;61.80;;;;;;21035026;27;79906;-66
2021/09/01 19:59:09;;;;;;;3.43;1.57;;;21.40;63.10;;;;;;21028631;27;80101;-67
2021/09/01 20:09:11;;;;;;;4.53;1.83;;;21.40;63.30;;;;;;21053032;27;80639;-66
2021/09/01 20:19:13;;;;;;;2.93;1.20;;;21.40;63.90;;;;;;21052100;27;81115;-69
2021/09/01 20:29:14;;;;;;;3.85;1.73;;;21.30;63.50;;;;;;21041331;27;81194;-66
2021/09/01 20:39:15;;;;;;;6.00;1.70;;;21.20;63.80;;;;;;21067520;27;81139;-68
2021/09/01 20:49:17;;;;;;;3.92;2.00;;;21.30;64.10;;;;;;21064793;27;81158;-68
2021/09/01 20:59:20;;;;;;;4.63;1.80;;;21.20;63.80;;;;;;21064338;27;81641;-69
2021/09/01 21:09:23;;;;;;;6.05;2.10;;;21.30;63.50;;;;;;21046337;27;81768;-66
2021/09/01 21:19:38;;;;;;;9.32;4.93;;;21.30;64.40;;;;;;21045415;27;80539;-65
2021/09/01 21:29:41;;;;;;;3.70;2.00;;;21.20;66.00;;;;;;21045907;27;80642;-67
2021/09/01 21:39:44;;;;;;;3.90;1.85;;;21.20;66.70;;;;;;21061580;27;81008;-67
2021/09/01 21:49:47;;;;;;;4.53;1.60;;;21.10;67.20;;;;;;21061580;27;81831;-70
2021/09/01 21:59:48;;;;;;;4.18;1.60;;;20.90;67.40;;;;;;21042212;27;81907;-70
2021/09/01 22:09:51;;;;;;;4.97;2.27;;;20.70;68.40;;;;;;21060310;27;80674;-68
2021/09/01 22:19:53;;;;;;;8.82;2.25;;;20.50;69.30;;;;;;21059791;27;81834;-70
2021/09/01 22:29:54;;;;;;;5.53;1.50;;;20.50;69.80;;;;;;21057549;27;80841;-69
2021/09/01 22:39:56;;;;;;;4.87;2.17;;;20.40;68.50;;;;;;21038182;27;81189;-70
2021/09/01 22:49:58;;;;;;;3.15;1.58;;;20.30;67.30;;;;;;21056821;27;82481;-69
2021/09/01 23:00:00;;;;;;;2.37;1.23;;;20.30;66.80;;;;;;21055310;27;81905;-66
2021/09/01 23:10:02;;;;;;;5.17;1.27;;;20.20;65.90;;;;;;21054807;27;81876;-66
2021/09/01 23:20:05;;;;;;;3.13;1.17;;;20.20;66.40;;;;;;21035357;27;80998;-70
2021/09/01 23:30:08;;;;;;;4.90;1.67;;;20.20;66.80;;;;;;21034423;27;80739;-66
2021/09/01 23:40:10;;;;;;;3.50;1.73;;;20.10;68.10;;;;;;21052845;27;80867;-68
2021/09/01 23:50:11;;;;;;;2.27;0.90;;;20.00;69.00;;;;;;21035094;27;81021;-66
